Terminal Aerodrome Forecast
Issued by NWS Sterling, VA

Home | Current Version | Previous Version | Text Only | Print | Product List | Glossary On
Versions: 1 2 3 4 5 6 7 8 9 10 11 12 13 14
000
FTUS41 KLWX 051944 AAA
TAFCHO
TAF AMD
KCHO 051944Z 0520/0618 18008KT P6SM VCTS BKN050CB
      TEMPO 0520/0521 VRB15G25KT 2SM TSRA OVC035CB
     FM052200 18005KT P6SM BKN090
     FM060400 VRB03KT P6SM SCT090
     FM061600 VRB03KT P6SM BKN090=

USA.gov is the U.S. government's official web portal to all federal, state and local government web resources and services.